createdAt,value
2017-11-20T00:02:22.095Z,12.50
2017-11-20T00:04:49.748Z,10.40
2017-11-20T00:07:17.389Z,11.20
2017-11-20T00:09:44.984Z,9.83
2017-11-20T00:12:12.591Z,11.90
2017-11-20T00:14:40.239Z,11.00
2017-11-20T00:17:07.868Z,10.73
2017-11-20T00:19:35.528Z,10.80
2017-11-20T00:22:03.240Z,11.10
2017-11-20T00:24:30.836Z,10.13
2017-11-20T00:26:58.500Z,9.97
2017-11-20T00:29:26.136Z,9.57
2017-11-20T00:31:53.745Z,8.90
2017-11-20T00:34:21.346Z,8.63
2017-11-20T00:36:49.052Z,7.67
2017-11-20T00:39:16.648Z,7.67
2017-11-20T00:41:44.308Z,6.10
2017-11-20T00:44:11.968Z,6.53
2017-11-20T00:46:39.564Z,7.50
2017-11-20T00:49:07.232Z,6.50
2017-11-20T00:51:34.965Z,6.53
2017-11-20T00:54:02.572Z,7.63
2017-11-20T00:56:30.241Z,7.40
2017-11-20T00:58:57.880Z,6.90
2017-11-20T01:01:25.551Z,6.47
2017-11-20T01:03:53.178Z,7.10
2017-11-20T01:06:20.831Z,6.90
2017-11-20T01:08:48.424Z,6.40
2017-11-20T01:11:16.025Z,7.23
2017-11-20T01:13:43.707Z,6.87
2017-11-20T01:16:11.308Z,6.63
2017-11-20T01:18:38.964Z,6.17
2017-11-20T01:21:06.645Z,6.00
2017-11-20T01:23:34.298Z,6.90
2017-11-20T01:26:01.957Z,5.60
2017-11-20T01:28:29.633Z,6.43
2017-11-20T01:30:57.236Z,5.30
2017-11-20T01:33:24.829Z,4.80
2017-11-20T01:35:52.473Z,4.07
2017-11-20T01:38:20.140Z,2.90
2017-11-20T01:40:47.835Z,3.60
2017-11-20T01:43:15.475Z,2.57
2017-11-20T01:45:43.073Z,2.10
2017-11-20T01:48:10.676Z,2.33
2017-11-20T01:50:38.377Z,1.90
2017-11-20T01:53:05.981Z,1.50
2017-11-20T01:55:33.577Z,1.13
2017-11-20T01:58:01.217Z,1.30
2017-11-20T02:00:28.825Z,1.13
2017-11-20T02:03:01.296Z,0.90
2017-11-20T02:05:28.940Z,0.80
2017-11-20T02:07:56.555Z,0.83
2017-11-20T02:10:24.207Z,0.97
2017-11-20T02:12:51.865Z,0.83
2017-11-20T02:15:19.473Z,1.00
2017-11-20T02:17:47.074Z,0.87
2017-11-20T02:20:14.820Z,0.87
2017-11-20T02:22:42.463Z,0.90
2017-11-20T02:25:10.084Z,0.90
2017-11-20T02:27:37.758Z,1.00
2017-11-20T02:30:05.350Z,0.97
2017-11-20T02:32:32.956Z,0.90
2017-11-20T02:35:00.662Z,1.00
2017-11-20T02:37:28.268Z,0.80
2017-11-20T02:39:55.934Z,1.00
2017-11-20T02:42:23.689Z,1.47
2017-11-20T02:44:51.297Z,4.47
2017-11-20T02:47:18.914Z,3.63
2017-11-20T02:49:46.587Z,1.53
2017-11-20T02:52:14.253Z,1.50
2017-11-20T02:54:41.968Z,2.57
2017-11-20T02:57:09.632Z,1.60
2017-11-20T02:59:37.288Z,1.80
2017-11-20T03:02:04.996Z,1.70
2017-11-20T03:04:32.643Z,2.00
2017-11-20T03:07:00.296Z,2.03
2017-11-20T03:09:27.895Z,5.03
2017-11-20T03:11:55.558Z,8.80
2017-11-20T03:14:23.163Z,4.23
2017-11-20T03:16:50.823Z,3.17
2017-11-20T03:19:18.477Z,6.40
2017-11-20T03:21:46.100Z,10.97
2017-11-20T03:24:13.696Z,9.77
2017-11-20T03:26:41.404Z,6.20
2017-11-20T03:29:09.015Z,13.20
2017-11-20T03:31:36.616Z,11.60
2017-11-20T03:34:04.328Z,3.53
2017-11-20T03:36:31.990Z,3.57
2017-11-20T03:38:59.603Z,2.57
2017-11-20T03:41:27.257Z,2.97
2017-11-20T03:43:54.920Z,3.50
2017-11-20T03:46:22.513Z,5.00
2017-11-20T03:48:50.168Z,3.10
2017-11-20T03:51:17.768Z,3.40
2017-11-20T03:53:45.420Z,4.50
2017-11-20T03:56:13.073Z,4.10
2017-11-20T03:58:40.721Z,4.93
2017-11-20T04:01:08.321Z,8.33
2017-11-20T04:03:36.020Z,8.67
2017-11-20T04:06:03.684Z,7.87
2017-11-20T04:08:31.292Z,5.80
2017-11-20T04:10:58.949Z,8.70
2017-11-20T04:13:26.547Z,6.53
2017-11-20T04:15:54.140Z,5.33
2017-11-20T04:18:21.784Z,4.50
2017-11-20T04:20:49.493Z,3.90
2017-11-20T04:23:17.145Z,4.13
2017-11-20T04:25:44.802Z,4.20
2017-11-20T04:28:12.396Z,6.00
2017-11-20T04:30:40.078Z,5.03
2017-11-20T04:33:07.787Z,4.67
2017-11-20T04:35:35.460Z,4.23
2017-11-20T04:38:03.061Z,4.00
2017-11-20T04:40:30.773Z,4.10
2017-11-20T04:42:58.374Z,4.20
2017-11-20T04:45:25.970Z,3.40
2017-11-20T04:47:53.692Z,3.33
2017-11-20T04:50:21.363Z,4.30
2017-11-20T04:52:49.028Z,6.23
2017-11-20T04:55:16.680Z,9.23
2017-11-20T04:57:44.284Z,5.07
2017-11-20T05:00:11.892Z,5.43
2017-11-20T05:02:39.591Z,4.50
2017-11-20T05:05:07.199Z,5.77
2017-11-20T05:07:34.812Z,6.33
2017-11-20T05:10:02.482Z,8.50
2017-11-20T05:12:30.087Z,8.90
2017-11-20T05:14:57.691Z,9.40
2017-11-20T05:17:25.358Z,8.13
2017-11-20T05:19:52.960Z,10.93
2017-11-20T05:22:20.631Z,10.00
2017-11-20T05:24:48.344Z,10.30
2017-11-20T05:27:15.952Z,10.50
2017-11-20T05:29:43.623Z,13.10
2017-11-20T05:32:11.288Z,11.93
2017-11-20T05:34:38.889Z,8.07
2017-11-20T05:37:06.490Z,9.10
2017-11-20T05:39:34.153Z,9.23
2017-11-20T05:42:01.763Z,13.17
2017-11-20T05:44:29.365Z,13.87
2017-11-20T05:46:57.037Z,10.97
2017-11-20T05:49:24.704Z,10.90
2017-11-20T05:51:52.304Z,10.17
2017-11-20T05:54:20.017Z,10.33
2017-11-20T05:56:47.705Z,10.10
2017-11-20T05:59:15.309Z,12.17
2017-11-20T06:01:42.973Z,12.00
2017-11-20T06:04:10.636Z,12.37
2017-11-20T06:06:38.312Z,11.97
2017-11-20T06:09:05.956Z,13.20
2017-11-20T06:11:33.581Z,12.83
2017-11-20T06:14:01.242Z,12.30
2017-11-20T06:16:28.962Z,15.60
2017-11-20T06:18:56.569Z,12.73
2017-11-20T06:21:25.056Z,14.70
2017-11-20T06:23:52.710Z,9.77
2017-11-20T06:26:20.312Z,14.37
2017-11-20T06:28:47.922Z,10.23
2017-11-20T06:31:15.638Z,11.30
2017-11-20T06:33:43.314Z,12.30
2017-11-20T06:36:10.915Z,12.40
2017-11-20T06:38:38.556Z,9.33
2017-11-20T06:41:06.153Z,10.10
2017-11-20T06:43:33.812Z,8.60
2017-11-20T06:46:01.457Z,13.47
2017-11-20T06:48:29.122Z,13.53
2017-11-20T06:50:56.723Z,10.23
2017-11-20T06:53:24.375Z,9.00
2017-11-20T06:55:52.055Z,8.97
2017-11-20T06:58:19.648Z,9.43
2017-11-20T07:00:47.313Z,8.83
2017-11-20T07:03:14.968Z,10.57
2017-11-20T07:05:42.568Z,9.87
2017-11-20T07:08:10.216Z,10.87
2017-11-20T07:10:37.872Z,8.90
2017-11-20T07:13:05.476Z,10.03
2017-11-20T07:15:33.123Z,10.30
2017-11-20T07:18:00.725Z,10.57
2017-11-20T07:20:28.436Z,11.67
2017-11-20T07:22:56.082Z,12.53
2017-11-20T07:25:35.564Z,12.40
2017-11-20T07:28:03.218Z,8.67
2017-11-20T07:33:55.029Z,9.07
2017-11-20T07:36:34.420Z,9.20
2017-11-20T07:39:13.913Z,8.53
2017-11-20T07:41:52.447Z,9.03
2017-11-20T07:44:20.141Z,10.07
2017-11-20T07:46:47.747Z,9.70
2017-11-20T07:49:15.410Z,10.43
2017-11-20T07:51:43.132Z,6.90
2017-11-20T07:54:10.731Z,8.60
2017-11-20T07:56:38.336Z,7.50
2017-11-20T07:59:06.116Z,7.70
2017-11-20T08:01:33.712Z,6.27
2017-11-20T08:04:01.385Z,11.33
2017-11-20T08:06:29.054Z,8.83
2017-11-20T08:08:57.629Z,9.63
2017-11-20T08:11:25.236Z,10.40
2017-11-20T08:13:52.936Z,12.50
2017-11-20T08:16:20.537Z,13.97
2017-11-20T08:18:48.207Z,9.27
2017-11-20T08:21:15.928Z,10.00
2017-11-20T08:23:43.628Z,9.30
2017-11-20T08:26:11.232Z,14.90
2017-11-20T08:28:38.980Z,13.30
2017-11-20T08:31:06.584Z,16.30
2017-11-20T08:33:34.267Z,15.03
2017-11-20T08:36:01.965Z,14.17
2017-11-20T08:38:29.572Z,16.10
2017-11-20T08:40:57.225Z,21.27
2017-11-20T08:43:24.941Z,28.13
2017-11-20T08:45:52.619Z,13.60
2017-11-20T08:48:20.297Z,12.97
2017-11-20T08:50:48.021Z,11.00
2017-11-20T08:53:15.681Z,7.10
2017-11-20T08:55:43.291Z,15.63
2017-11-20T08:58:11.016Z,11.27
2017-11-20T09:00:38.632Z,10.00
2017-11-20T09:03:06.233Z,9.57
2017-11-20T09:05:33.963Z,10.10
2017-11-20T09:08:01.576Z,13.40
2017-11-20T09:10:29.181Z,15.27
2017-11-20T09:12:56.856Z,11.93
2017-11-20T09:15:24.452Z,9.30
2017-11-20T09:17:52.068Z,8.30
2017-11-20T09:20:19.718Z,8.50
2017-11-20T09:22:47.379Z,8.50
2017-11-20T09:25:14.975Z,7.80
2017-11-20T09:27:42.678Z,4.30
2017-11-20T09:30:10.287Z,6.53
2017-11-20T09:32:37.880Z,8.03
2017-11-20T09:35:05.533Z,10.50
2017-11-20T09:37:33.180Z,8.77
2017-11-20T09:40:00.783Z,9.10
2017-11-20T09:42:28.596Z,9.10
2017-11-20T09:44:56.234Z,9.03
2017-11-20T09:47:23.841Z,9.93
2017-11-20T09:49:51.509Z,9.30
2017-11-20T09:52:19.152Z,9.77
2017-11-20T09:54:46.816Z,8.70
2017-11-20T09:57:14.560Z,7.20
2017-11-20T09:59:42.168Z,10.50
2017-11-20T10:02:09.820Z,9.23
2017-11-20T10:04:37.537Z,10.03
2017-11-20T10:07:05.153Z,10.17
2017-11-20T10:09:32.768Z,12.43
2017-11-20T10:12:00.381Z,24.67
2017-11-20T10:14:28.014Z,10.70
2017-11-20T10:16:55.556Z,8.63
2017-11-20T10:19:23.140Z,11.23
2017-11-20T10:21:50.722Z,11.60
2017-11-20T10:24:18.267Z,16.50
2017-11-20T10:26:45.850Z,12.20
2017-11-20T10:29:13.419Z,11.23
2017-11-20T10:31:40.986Z,15.60
2017-11-20T10:34:08.599Z,16.60
2017-11-20T10:36:36.147Z,13.60
2017-11-20T10:39:03.796Z,20.40
2017-11-20T10:41:31.401Z,15.13
2017-11-20T10:43:59.028Z,14.13
2017-11-20T10:46:26.602Z,13.37
2017-11-20T10:48:54.216Z,12.93
2017-11-20T10:51:21.783Z,15.70
2017-11-20T10:53:49.359Z,9.73
2017-11-20T10:56:16.948Z,9.93
2017-11-20T10:58:44.525Z,8.00
2017-11-20T11:01:12.066Z,9.10
2017-11-20T11:03:39.719Z,8.50
2017-11-20T11:06:07.276Z,10.47
2017-11-20T11:08:34.828Z,9.53
2017-11-20T11:11:02.452Z,8.80
2017-11-20T11:13:30.020Z,11.67
2017-11-20T11:15:57.589Z,10.80
2017-11-20T11:18:25.190Z,13.30
2017-11-20T11:20:52.752Z,13.00
2017-11-20T11:23:20.395Z,12.20
2017-11-20T11:25:47.991Z,13.73
2017-11-20T11:28:15.531Z,10.37
2017-11-20T11:30:43.092Z,10.90
2017-11-20T11:33:10.687Z,10.80
2017-11-20T11:35:38.243Z,12.33
2017-11-20T11:38:05.803Z,13.77
2017-11-20T11:40:33.404Z,13.60
2017-11-20T11:43:01.083Z,15.30
2017-11-20T11:45:28.672Z,12.70
2017-11-20T11:47:56.277Z,13.80
2017-11-20T11:50:23.834Z,11.80
2017-11-20T11:52:51.416Z,15.47
2017-11-20T11:55:19.011Z,19.37
2017-11-20T11:57:46.577Z,12.10
2017-11-20T12:00:14.227Z,10.70
2017-11-20T12:02:41.825Z,10.63
2017-11-20T12:05:09.384Z,14.20
2017-11-20T12:07:36.930Z,11.33
2017-11-20T12:10:04.547Z,10.03
2017-11-20T12:12:32.104Z,10.83
2017-11-20T12:14:59.667Z,10.77
2017-11-20T12:17:27.272Z,9.13
2017-11-20T12:19:54.816Z,9.37
2017-11-20T12:22:22.422Z,8.70
2017-11-20T12:24:50.107Z,10.90
2017-11-20T12:27:17.656Z,9.67
2017-11-20T12:29:45.211Z,10.90
2017-11-20T12:32:12.870Z,8.77
2017-11-20T12:34:40.436Z,9.10
2017-11-20T12:37:07.976Z,9.83
2017-11-20T12:39:35.552Z,10.00
2017-11-20T12:42:03.105Z,11.63
2017-11-20T12:44:30.667Z,10.97
2017-11-20T12:46:58.254Z,11.40
2017-11-20T12:49:25.816Z,10.23
2017-11-20T12:51:53.366Z,12.67
2017-11-20T12:54:20.939Z,11.20
2017-11-20T12:56:48.492Z,10.00
2017-11-20T12:59:16.059Z,10.87
2017-11-20T13:01:43.650Z,11.13
2017-11-20T13:04:11.239Z,11.50
2017-11-20T13:06:39.683Z,15.13
2017-11-20T13:09:07.263Z,11.40
2017-11-20T13:11:34.810Z,10.77
2017-11-20T13:14:02.366Z,14.50
2017-11-20T13:16:29.979Z,14.53
2017-11-20T13:18:57.615Z,11.33
2017-11-20T13:21:25.215Z,12.53
2017-11-20T13:23:52.853Z,13.30
2017-11-20T13:26:20.455Z,16.30
2017-11-20T13:28:48.073Z,14.30
2017-11-20T13:31:15.704Z,10.70
2017-11-20T13:33:43.435Z,12.93
2017-11-20T13:36:11.008Z,20.87
2017-11-20T13:38:38.608Z,15.70
2017-11-20T13:41:06.183Z,17.70
2017-11-20T13:43:33.795Z,16.53
2017-11-20T13:46:01.519Z,15.80
2017-11-20T13:48:29.082Z,24.60
2017-11-20T13:50:56.643Z,17.00
2017-11-20T13:53:24.279Z,13.60
2017-11-20T13:55:51.848Z,13.40
2017-11-20T13:58:19.398Z,17.37
2017-11-20T14:00:46.983Z,13.10
2017-11-20T14:03:14.569Z,16.40
2017-11-20T14:05:42.112Z,13.57
2017-11-20T14:08:09.812Z,15.13
2017-11-20T14:10:37.387Z,16.20
2017-11-20T14:13:05.114Z,23.67
2017-11-20T14:15:32.763Z,9.17
2017-11-20T14:18:00.415Z,16.93
2017-11-20T14:20:27.963Z,14.27
2017-11-20T14:22:55.551Z,14.80
2017-11-20T14:25:23.102Z,15.73
2017-11-20T14:27:50.653Z,16.67
2017-11-20T14:30:18.369Z,10.50
2017-11-20T14:32:45.957Z,13.40
2017-11-20T14:35:13.690Z,12.63
2017-11-20T14:37:41.296Z,9.37
2017-11-20T14:40:08.960Z,10.60
2017-11-20T14:42:36.604Z,9.80
2017-11-20T14:45:04.265Z,11.00
2017-11-20T14:47:32.014Z,11.53
2017-11-20T14:49:59.663Z,10.73
2017-11-20T14:52:43.059Z,11.33
2017-11-20T14:55:10.815Z,10.57
2017-11-20T14:57:38.383Z,17.13
2017-11-20T15:00:05.966Z,11.90
2017-11-20T15:02:33.735Z,10.57
2017-11-20T15:05:01.310Z,11.30
2017-11-20T15:07:28.935Z,11.50
2017-11-20T15:09:56.504Z,11.43
2017-11-20T15:12:24.211Z,9.47
2017-11-20T15:14:51.903Z,9.90
2017-11-20T15:17:19.556Z,8.67
2017-11-20T15:19:47.243Z,9.13
2017-11-20T15:22:14.984Z,10.70
2017-11-20T15:24:42.740Z,11.57
2017-11-20T15:27:10.645Z,7.83
2017-11-20T15:29:38.451Z,8.50
2017-11-20T15:32:06.164Z,7.90
2017-11-20T15:34:33.896Z,10.40
2017-11-20T15:37:01.606Z,9.37
2017-11-20T15:39:29.235Z,8.20
2017-11-20T15:41:56.885Z,9.43
2017-11-20T15:44:24.540Z,10.93
2017-11-20T15:46:52.108Z,6.87
2017-11-20T15:49:19.636Z,8.40
2017-11-20T15:51:47.270Z,8.13
2017-11-20T15:54:14.812Z,7.20
2017-11-20T15:56:42.378Z,9.23
2017-11-20T15:59:09.946Z,8.53
2017-11-20T16:01:37.479Z,8.37
2017-11-20T16:04:05.020Z,11.20
2017-11-20T16:06:32.591Z,10.40
2017-11-20T16:09:00.127Z,10.47
2017-11-20T16:11:27.669Z,12.47
2017-11-20T16:13:55.248Z,12.67
2017-11-20T16:16:22.818Z,10.27
2017-11-20T16:18:50.362Z,9.60
2017-11-20T16:21:17.927Z,9.70
2017-11-20T16:23:45.464Z,9.93
2017-11-20T16:26:13.023Z,8.17
2017-11-20T16:28:40.604Z,8.17
2017-11-20T16:31:08.142Z,8.63
2017-11-20T16:33:35.679Z,8.90
2017-11-20T16:36:03.308Z,7.77
2017-11-20T16:38:30.899Z,7.17
2017-11-20T16:40:58.556Z,7.23
2017-11-20T16:43:26.196Z,10.20
2017-11-20T16:45:53.889Z,8.33
2017-11-20T16:48:21.595Z,12.30
2017-11-20T16:50:49.244Z,8.30
2017-11-20T16:53:16.897Z,7.83
2017-11-20T16:55:44.497Z,7.03
2017-11-20T16:58:24.020Z,6.60
2017-11-20T17:00:51.718Z,7.00
2017-11-20T17:03:35.057Z,7.43
2017-11-20T17:06:02.675Z,8.17
2017-11-20T17:08:30.285Z,8.47
2017-11-20T17:10:57.928Z,8.80
2017-11-20T17:13:25.535Z,7.93
2017-11-20T17:15:53.159Z,10.57
2017-11-20T17:18:20.812Z,10.17
2017-11-20T17:20:48.414Z,9.23
2017-11-20T17:23:16.008Z,9.37
2017-11-20T17:25:43.700Z,7.77
2017-11-20T17:28:11.306Z,10.43
2017-11-20T17:30:38.900Z,8.90
2017-11-20T17:33:06.556Z,10.80
2017-11-20T17:35:34.168Z,6.93
2017-11-20T17:38:01.765Z,10.60
2017-11-20T17:40:29.436Z,13.53
2017-11-20T17:42:57.235Z,16.23
2017-11-20T17:45:24.857Z,13.30
2017-11-20T17:47:52.498Z,9.50
2017-11-20T17:50:20.100Z,8.10
2017-11-20T17:52:47.770Z,7.33
2017-11-20T17:55:15.417Z,11.00
2017-11-20T17:57:43.011Z,8.10
2017-11-20T18:00:10.667Z,7.20
2017-11-20T18:02:38.378Z,8.33
2017-11-20T18:05:05.981Z,10.00
2017-11-20T18:07:33.584Z,7.63
2017-11-20T18:10:01.263Z,8.27
2017-11-20T18:12:28.927Z,7.43
2017-11-20T18:14:56.529Z,6.47
2017-11-20T18:17:24.193Z,5.40
2017-11-20T18:19:51.804Z,7.20
2017-11-20T18:22:19.482Z,5.63
2017-11-20T18:24:47.151Z,6.10
2017-11-20T18:27:14.748Z,6.40
2017-11-20T18:29:42.348Z,7.13
2017-11-20T18:32:10.000Z,6.43
2017-11-20T18:34:37.596Z,4.90
2017-11-20T18:37:05.139Z,5.63
2017-11-20T18:39:32.789Z,6.03
2017-11-20T18:42:00.387Z,7.33
2017-11-20T18:44:28.053Z,7.10
2017-11-20T18:46:55.752Z,7.33
2017-11-20T18:49:23.408Z,5.97
2017-11-20T18:51:51.056Z,5.83
2017-11-20T18:54:18.789Z,5.70
2017-11-20T18:56:46.444Z,6.60
2017-11-20T18:59:14.076Z,6.30
2017-11-20T19:04:58.740Z,6.50
2017-11-20T19:07:38.184Z,6.43
2017-11-20T19:10:05.880Z,6.00
2017-11-20T19:12:33.475Z,6.00
2017-11-20T19:15:01.127Z,7.83
2017-11-20T19:17:28.753Z,5.93
2017-11-20T19:19:56.370Z,5.77
2017-11-20T19:22:24.093Z,7.43
2017-11-20T19:24:51.703Z,8.63
2017-11-20T19:27:19.320Z,6.30
2017-11-20T19:29:47.032Z,6.90
2017-11-20T19:32:14.701Z,6.67
2017-11-20T19:34:42.360Z,6.97
2017-11-20T19:37:10.012Z,7.20
2017-11-20T19:39:37.668Z,7.90
2017-11-20T19:42:05.264Z,6.80
2017-11-20T19:44:32.918Z,5.93
2017-11-20T19:47:00.516Z,5.90
2017-11-20T19:49:28.122Z,6.30
2017-11-20T19:51:55.761Z,5.90
2017-11-20T19:54:23.424Z,6.40
2017-11-20T19:56:51.025Z,5.17
2017-11-20T19:59:18.790Z,6.67
2017-11-20T20:01:46.425Z,6.30
2017-11-20T20:04:14.019Z,6.93
2017-11-20T20:06:41.796Z,6.07
2017-11-20T20:09:09.383Z,5.93
2017-11-20T20:11:36.984Z,5.00
2017-11-20T20:14:16.445Z,5.10
2017-11-20T20:16:46.024Z,6.83
2017-11-20T20:19:13.684Z,6.00
2017-11-20T20:21:41.404Z,5.30
2017-11-20T20:24:08.996Z,5.10
2017-11-20T20:26:36.596Z,4.13
2017-11-20T20:29:04.275Z,6.10
2017-11-20T20:31:31.941Z,6.93
2017-11-20T20:33:59.549Z,7.60
2017-11-20T20:36:27.250Z,5.90
2017-11-20T20:38:54.845Z,7.50
2017-11-20T20:41:22.435Z,6.23
2017-11-20T20:43:50.072Z,7.03
2017-11-20T20:46:17.731Z,5.30
2017-11-20T20:48:45.324Z,6.20
2017-11-20T20:51:13.023Z,6.40
2017-11-20T20:53:40.676Z,5.80
2017-11-20T20:56:08.275Z,5.50
2017-11-20T20:58:35.971Z,6.93
2017-11-20T21:01:03.564Z,6.13
2017-11-20T21:03:31.160Z,5.23
2017-11-20T21:05:58.809Z,5.57
2017-11-20T21:08:26.419Z,5.67
2017-11-20T21:10:59.685Z,7.50
2017-11-20T21:13:27.291Z,5.30
2017-11-20T21:15:54.890Z,6.53
2017-11-20T21:18:22.524Z,5.10
2017-11-20T21:20:50.190Z,6.37
2017-11-20T21:23:17.795Z,5.10
2017-11-20T21:25:45.437Z,4.53
2017-11-20T21:28:13.108Z,4.63
2017-11-20T21:30:40.704Z,4.60
2017-11-20T21:33:08.360Z,5.47
2017-11-20T21:35:35.961Z,4.73
2017-11-20T21:38:03.621Z,4.50
2017-11-20T21:40:31.336Z,4.83
2017-11-20T21:42:58.940Z,5.57
2017-11-20T21:45:26.605Z,4.90
2017-11-20T21:47:54.320Z,4.37
2017-11-20T21:50:21.912Z,4.43
2017-11-20T21:52:49.527Z,5.47
2017-11-20T21:55:17.195Z,4.33
2017-11-20T21:57:44.856Z,4.20
2017-11-20T22:00:12.458Z,5.90
2017-11-20T22:02:40.105Z,4.60
2017-11-20T22:05:07.712Z,3.57
2017-11-20T22:07:35.384Z,4.50
2017-11-20T22:10:03.033Z,4.47
2017-11-20T22:12:42.609Z,4.90
2017-11-20T22:15:10.365Z,4.80
2017-11-20T22:17:37.970Z,4.67
2017-11-20T22:20:05.565Z,4.50
2017-11-20T22:22:33.285Z,3.87
2017-11-20T22:25:00.872Z,4.73
2017-11-20T22:27:28.531Z,4.67
2017-11-20T22:29:56.250Z,3.67
2017-11-20T22:32:23.859Z,3.97
2017-11-20T22:34:51.448Z,4.07
2017-11-20T22:37:19.095Z,4.10
2017-11-20T22:39:46.753Z,3.73
2017-11-20T22:42:14.349Z,3.80
2017-11-20T22:44:42.023Z,3.60
2017-11-20T22:47:09.625Z,4.07
2017-11-20T22:49:37.223Z,4.63
2017-11-20T22:52:04.936Z,3.57
2017-11-20T22:54:32.590Z,5.30
2017-11-20T22:57:00.185Z,4.40
2017-11-20T22:59:27.823Z,4.07
2017-11-20T23:01:55.420Z,4.13
2017-11-20T23:04:23.009Z,4.40
2017-11-20T23:06:50.672Z,4.87
2017-11-20T23:09:18.264Z,5.20
2017-11-20T23:11:45.934Z,4.53
2017-11-20T23:14:13.674Z,4.77
2017-11-20T23:16:41.279Z,4.20
2017-11-20T23:19:08.928Z,3.70
2017-11-20T23:21:36.625Z,4.83
2017-11-20T23:24:04.275Z,3.20
2017-11-20T23:26:31.929Z,3.73
2017-11-20T23:28:59.597Z,4.23
2017-11-20T23:31:27.244Z,3.60
2017-11-20T23:33:54.840Z,3.10
2017-11-20T23:36:22.481Z,3.77
2017-11-20T23:38:50.132Z,4.57
2017-11-20T23:41:17.723Z,2.73
2017-11-20T23:43:45.437Z,3.53
2017-11-20T23:46:13.036Z,3.50
2017-11-20T23:48:40.743Z,3.57
2017-11-20T23:51:08.544Z,2.70
2017-11-20T23:53:36.149Z,3.07
2017-11-20T23:56:03.747Z,2.60
2017-11-20T23:58:31.412Z,2.80
